createdAt,value
2016-09-12T00:01:37.818Z,957.44
2016-09-12T00:02:21.735Z,957.44
2016-09-12T00:02:48.481Z,957.45
2016-09-12T00:03:37.418Z,957.41
2016-09-12T00:04:38.796Z,957.46
2016-09-12T00:05:34.696Z,957.45
2016-09-12T00:06:38.563Z,957.45
2016-09-12T00:07:42.187Z,957.40
2016-09-12T00:08:39.707Z,957.42
2016-09-12T00:09:37.319Z,957.41
2016-09-12T00:10:41.633Z,957.47
2016-09-12T00:11:34.277Z,957.48
2016-09-12T00:12:38.310Z,957.48
2016-09-12T00:13:32.666Z,957.47
2016-09-12T00:14:34.186Z,957.51
2016-09-12T00:15:38.693Z,957.48
2016-09-12T00:16:38.686Z,957.53
2016-09-12T00:17:37.842Z,957.53
2016-09-12T00:18:39.525Z,957.52
2016-09-12T00:19:34.896Z,957.48
2016-09-12T00:20:37.897Z,957.48
2016-09-12T00:21:38.793Z,957.46
2016-09-12T00:22:38.404Z,957.42
2016-09-12T00:23:33.860Z,957.39
2016-09-12T00:24:38.575Z,957.43
2016-09-12T00:25:33.911Z,957.44
2016-09-12T00:26:44.124Z,957.43
2016-09-12T00:27:32.565Z,957.43
2016-09-12T00:28:37.911Z,957.43
2016-09-12T00:29:32.576Z,957.41
2016-09-12T00:30:44.137Z,957.36
2016-09-12T00:31:43.727Z,957.37
2016-09-12T00:32:39.634Z,957.38
2016-09-12T00:33:29.728Z,957.38
2016-09-12T00:34:43.214Z,957.42
2016-09-12T00:35:49.484Z,957.38
2016-09-12T00:36:28.706Z,957.34
2016-09-12T00:38:01.547Z,957.36
2016-09-12T00:38:34.010Z,957.32
2016-09-12T00:39:40.172Z,957.36
2016-09-12T00:40:35.268Z,957.29
2016-09-12T00:41:33.971Z,957.31
2016-09-12T00:42:32.194Z,957.29
2016-09-12T00:43:41.887Z,957.27
2016-09-12T00:44:37.622Z,957.25
2016-09-12T00:45:39.197Z,957.23
2016-09-12T00:46:38.198Z,957.26
2016-09-12T00:47:32.207Z,957.27
2016-09-12T00:48:39.490Z,957.25
2016-09-12T00:49:44.302Z,957.24
2016-09-12T00:50:29.227Z,957.25
2016-09-12T00:51:39.215Z,957.21
2016-09-12T00:52:43.697Z,957.23
2016-09-12T00:53:44.638Z,957.25
2016-09-12T00:54:33.868Z,957.27
2016-09-12T00:55:27.693Z,957.30
2016-09-12T00:56:37.950Z,957.33
2016-09-12T00:57:39.866Z,957.30
2016-09-12T00:58:32.646Z,957.32
2016-09-12T00:59:33.515Z,957.28
2016-09-12T01:00:46.110Z,957.29
2016-09-12T01:01:39.386Z,957.26
2016-09-12T01:02:38.844Z,957.26
2016-09-12T01:03:33.461Z,957.21
2016-09-12T01:04:42.991Z,957.22
2016-09-12T01:05:39.590Z,957.21
2016-09-12T01:06:38.827Z,957.22
2016-09-12T01:07:33.285Z,957.24
2016-09-12T01:08:43.700Z,957.27
2016-09-12T01:09:43.789Z,957.23
2016-09-12T01:10:47.865Z,957.21
2016-09-12T01:11:44.249Z,957.24
2016-09-12T01:12:45.256Z,957.21
2016-09-12T01:13:43.005Z,957.20
2016-09-12T01:14:42.068Z,957.21
2016-09-12T01:15:49.100Z,957.21
2016-09-12T01:16:36.915Z,957.21
2016-09-12T01:17:39.485Z,957.16
2016-09-12T01:18:48.250Z,957.17
2016-09-12T01:20:01.079Z,957.14
2016-09-12T01:20:33.736Z,957.12
2016-09-12T01:21:38.152Z,957.14
2016-09-12T01:22:28.556Z,957.12
2016-09-12T01:23:43.591Z,957.20
2016-09-12T01:24:38.831Z,957.18
2016-09-12T01:25:32.344Z,957.16
2016-09-12T01:26:31.022Z,957.21
2016-09-12T01:27:41.609Z,957.18
2016-09-12T01:28:14.117Z,957.16
2016-09-12T01:29:44.113Z,957.15
2016-09-12T01:30:34.556Z,957.15
2016-09-12T01:31:22.739Z,957.14
2016-09-12T01:32:36.189Z,957.12
2016-09-12T01:33:32.398Z,957.17
2016-09-12T01:34:38.414Z,957.15
2016-09-12T01:35:44.431Z,957.15
2016-09-12T01:36:33.602Z,957.13
2016-09-12T01:37:33.237Z,957.14
2016-09-12T01:38:41.729Z,957.12
2016-09-12T01:39:38.361Z,957.08
2016-09-12T01:40:42.792Z,957.09
2016-09-12T01:41:38.755Z,957.08
2016-09-12T01:42:33.134Z,957.13
2016-09-12T01:43:33.073Z,957.17
2016-09-12T01:44:33.969Z,957.15
2016-09-12T01:45:38.207Z,957.14
2016-09-12T01:46:32.049Z,957.16
2016-09-12T01:47:47.130Z,957.17
2016-09-12T01:48:34.059Z,957.17
2016-09-12T01:49:33.874Z,957.18
2016-09-12T01:50:38.356Z,957.15
2016-09-12T01:51:39.182Z,957.09
2016-09-12T01:52:46.173Z,957.10
2016-09-12T01:53:40.581Z,957.08
2016-09-12T01:54:44.843Z,957.06
2016-09-12T01:55:39.203Z,957.02
2016-09-12T01:56:42.567Z,957.04
2016-09-12T01:57:44.924Z,957.00
2016-09-12T01:58:44.754Z,956.99
2016-09-12T01:59:43.385Z,957.01
2016-09-12T02:00:39.667Z,956.99
2016-09-12T02:01:32.574Z,956.96
2016-09-12T02:02:43.854Z,956.98
2016-09-12T02:03:31.915Z,956.98
2016-09-12T02:04:39.041Z,956.97
2016-09-12T02:05:39.635Z,956.99
2016-09-12T02:06:44.907Z,957.00
2016-09-12T02:07:48.702Z,957.01
2016-09-12T02:08:31.540Z,957.01
2016-09-12T02:09:33.691Z,956.99
2016-09-12T02:10:38.369Z,957.00
2016-09-12T02:11:37.318Z,956.96
2016-09-12T02:12:40.353Z,956.99
2016-09-12T02:13:49.883Z,956.98
2016-09-12T02:14:39.702Z,956.97
2016-09-12T02:15:20.410Z,956.98
2016-09-12T02:16:28.065Z,957.00
2016-09-12T02:17:39.563Z,956.97
2016-09-12T02:18:39.220Z,957.01
2016-09-12T02:19:31.484Z,956.97
2016-09-12T02:20:42.690Z,956.94
2016-09-12T02:21:38.190Z,956.94
2016-09-12T02:22:33.816Z,956.97
2016-09-12T02:23:37.704Z,956.96
2016-09-12T02:24:45.080Z,956.96
2016-09-12T02:25:34.133Z,956.99
2016-09-12T02:26:34.046Z,957.01
2016-09-12T02:27:38.356Z,956.98
2016-09-12T02:28:40.587Z,956.97
2016-09-12T02:29:39.338Z,956.98
2016-09-12T02:30:37.464Z,956.96
2016-09-12T02:31:43.951Z,956.94
2016-09-12T02:32:38.443Z,956.95
2016-09-12T02:33:29.234Z,956.97
2016-09-12T02:34:48.883Z,956.96
2016-09-12T02:35:37.967Z,956.97
2016-09-12T02:36:32.674Z,956.93
2016-09-12T02:37:39.283Z,956.96
2016-09-12T02:38:44.966Z,956.95
2016-09-12T02:39:33.764Z,956.89
2016-09-12T02:40:33.907Z,956.91
2016-09-12T02:41:38.790Z,956.94
2016-09-12T02:42:39.176Z,956.94
2016-09-12T02:43:40.370Z,956.91
2016-09-12T02:44:42.689Z,956.95
2016-09-12T02:45:44.599Z,956.97
2016-09-12T02:46:36.553Z,956.95
2016-09-12T02:47:38.473Z,957.01
2016-09-12T02:48:28.202Z,957.02
2016-09-12T02:49:33.029Z,957.01
2016-09-12T02:50:29.499Z,957.02
2016-09-12T02:51:27.970Z,957.02
2016-09-12T02:52:37.800Z,957.01
2016-09-12T02:53:37.258Z,957.00
2016-09-12T02:54:16.208Z,957.01
2016-09-12T02:55:40.239Z,957.02
2016-09-12T02:56:38.233Z,957.03
2016-09-12T02:57:47.197Z,957.03
2016-09-12T02:58:29.186Z,957.01
2016-09-12T02:59:37.476Z,957.01
2016-09-12T03:00:32.507Z,957.03
2016-09-12T03:01:38.192Z,957.04
2016-09-12T03:02:41.769Z,957.00
2016-09-12T03:03:25.857Z,956.99
2016-09-12T03:04:43.875Z,957.01
2016-09-12T03:05:43.642Z,956.96
2016-09-12T03:07:14.697Z,956.97
2016-09-12T03:07:38.026Z,956.93
2016-09-12T03:08:32.703Z,956.90
2016-09-12T03:09:33.046Z,956.93
2016-09-12T03:10:28.742Z,956.90
2016-09-12T03:11:17.573Z,956.91
2016-09-12T03:12:29.399Z,956.91
2016-09-12T03:13:37.362Z,956.92
2016-09-12T03:14:44.602Z,956.92
2016-09-12T03:15:39.670Z,956.91
2016-09-12T03:16:37.857Z,956.90
2016-09-12T03:17:38.593Z,956.89
2016-09-12T03:18:39.704Z,956.92
2016-09-12T03:19:33.311Z,956.95
2016-09-12T03:20:43.102Z,956.97
2016-09-12T03:21:40.620Z,956.97
2016-09-12T03:22:43.394Z,956.96
2016-09-12T03:23:41.148Z,956.96
2016-09-12T03:24:44.057Z,957.00
2016-09-12T03:25:44.431Z,956.97
2016-09-12T03:26:42.872Z,957.01
2016-09-12T03:27:37.315Z,956.99
2016-09-12T03:28:43.228Z,956.98
2016-09-12T03:29:27.180Z,957.00
2016-09-12T03:30:33.044Z,956.97
2016-09-12T03:31:44.639Z,956.96
2016-09-12T03:32:41.121Z,956.96
2016-09-12T03:33:39.906Z,956.93
2016-09-12T03:34:34.046Z,956.95
2016-09-12T03:35:41.136Z,956.97
2016-09-12T03:36:34.337Z,956.97
2016-09-12T03:37:37.311Z,957.01
2016-09-12T03:38:33.038Z,956.98
2016-09-12T03:39:43.507Z,956.98
2016-09-12T03:40:32.790Z,956.92
2016-09-12T03:41:43.859Z,956.94
2016-09-12T03:42:34.315Z,956.90
2016-09-12T03:43:33.471Z,956.89
2016-09-12T03:44:47.951Z,956.87
2016-09-12T03:45:44.667Z,956.88
2016-09-12T03:46:32.442Z,956.87
2016-09-12T03:47:37.470Z,956.90
2016-09-12T03:48:43.037Z,956.87
2016-09-12T03:49:32.207Z,956.91
2016-09-12T03:50:45.553Z,956.91
2016-09-12T03:51:31.888Z,956.91
2016-09-12T03:52:45.222Z,956.90
2016-09-12T03:53:48.361Z,956.92
2016-09-12T03:54:34.649Z,956.92
2016-09-12T03:55:37.569Z,956.92
2016-09-12T03:56:38.687Z,956.92
2016-09-12T03:57:33.127Z,956.92
2016-09-12T03:58:38.963Z,956.88
2016-09-12T03:59:42.202Z,956.90
2016-09-12T04:00:44.608Z,956.89
2016-09-12T04:01:32.964Z,956.92
2016-09-12T04:02:38.729Z,956.89
2016-09-12T04:03:44.612Z,956.92
2016-09-12T04:04:39.500Z,956.91
2016-09-12T04:05:39.460Z,956.91
2016-09-12T04:06:38.508Z,956.90
2016-09-12T04:07:38.875Z,956.88
2016-09-12T04:08:43.331Z,956.86
2016-09-12T04:09:48.065Z,956.88
2016-09-12T04:10:33.100Z,956.88
2016-09-12T04:11:32.387Z,956.91
2016-09-12T04:12:45.410Z,956.93
2016-09-12T04:13:43.203Z,956.92
2016-09-12T04:14:37.715Z,956.94
2016-09-12T04:15:44.394Z,956.94
2016-09-12T04:16:48.791Z,956.95
2016-09-12T04:17:40.012Z,956.94
2016-09-12T04:18:39.422Z,956.93
2016-09-12T04:19:50.102Z,956.96
2016-09-12T04:20:31.963Z,956.97
2016-09-12T04:22:01.573Z,956.92
2016-09-12T04:22:34.435Z,956.97
2016-09-12T04:23:13.631Z,956.96
2016-09-12T04:24:39.518Z,956.98
2016-09-12T04:25:59.752Z,956.96
2016-09-12T04:26:38.129Z,956.96
2016-09-12T04:27:44.024Z,956.95
2016-09-12T04:28:34.467Z,956.95
2016-09-12T04:29:38.748Z,956.99
2016-09-12T04:30:33.568Z,957.01
2016-09-12T04:32:01.342Z,957.02
2016-09-12T04:32:40.281Z,957.01
2016-09-12T04:33:38.581Z,957.04
2016-09-12T04:34:51.791Z,957.04
2016-09-12T04:35:33.864Z,957.07
2016-09-12T04:36:33.592Z,957.08
2016-09-12T04:37:32.236Z,957.09
2016-09-12T04:38:45.071Z,957.09
2016-09-12T04:39:40.158Z,957.07
2016-09-12T04:40:33.590Z,957.08
2016-09-12T04:41:33.658Z,957.11
2016-09-12T04:42:37.304Z,957.13
2016-09-12T04:43:44.581Z,957.17
2016-09-12T04:45:34.377Z,957.16
2016-09-12T04:46:43.777Z,957.16
2016-09-12T04:47:39.825Z,957.14
2016-09-12T04:48:33.914Z,957.14
2016-09-12T04:49:28.590Z,957.15
2016-09-12T04:50:39.206Z,957.16
2016-09-12T04:51:33.034Z,957.11
2016-09-12T04:52:37.893Z,957.12
2016-09-12T04:53:44.901Z,957.15
2016-09-12T04:54:28.145Z,957.14
2016-09-12T04:55:44.106Z,957.10
2016-09-12T04:56:39.038Z,957.11
2016-09-12T04:57:38.186Z,957.12
2016-09-12T04:58:40.131Z,957.11
2016-09-12T04:59:43.652Z,957.10
2016-09-12T05:00:28.109Z,957.10
2016-09-12T05:01:40.978Z,957.11
2016-09-12T05:02:31.314Z,957.10
2016-09-12T05:03:39.585Z,957.09
2016-09-12T05:04:37.385Z,957.12
2016-09-12T05:05:47.448Z,957.09
2016-09-12T05:06:42.107Z,957.07
2016-09-12T05:07:38.663Z,957.09
2016-09-12T05:08:42.409Z,957.07
2016-09-12T05:09:44.833Z,957.09
2016-09-12T05:10:27.781Z,957.10
2016-09-12T05:11:39.494Z,957.08
2016-09-12T05:12:45.114Z,957.06
2016-09-12T05:13:29.629Z,957.07
2016-09-12T05:14:38.121Z,957.07
2016-09-12T05:15:44.955Z,957.08
2016-09-12T05:16:45.908Z,957.06
2016-09-12T05:17:47.119Z,957.07
2016-09-12T05:18:38.316Z,957.07
2016-09-12T05:19:43.535Z,957.07
2016-09-12T05:20:40.392Z,957.08
2016-09-12T05:21:39.135Z,957.09
2016-09-12T05:22:38.830Z,957.06
2016-09-12T05:23:33.239Z,957.09
2016-09-12T05:24:30.070Z,957.14
2016-09-12T05:25:26.484Z,957.11
2016-09-12T05:26:40.050Z,957.11
2016-09-12T05:27:21.591Z,957.09
2016-09-12T05:28:22.477Z,957.12
2016-09-12T05:29:13.150Z,957.12
2016-09-12T05:30:38.813Z,957.14
2016-09-12T05:31:39.439Z,957.16
2016-09-12T05:32:39.072Z,957.14
2016-09-12T05:33:39.313Z,957.12
2016-09-12T05:34:39.185Z,957.18
2016-09-12T05:35:37.844Z,957.14
2016-09-12T05:36:42.964Z,957.14
2016-09-12T05:37:44.166Z,957.15
2016-09-12T05:38:34.697Z,957.15
2016-09-12T05:39:35.280Z,957.15
2016-09-12T05:40:38.508Z,957.12
2016-09-12T05:41:54.944Z,957.14
2016-09-12T05:42:13.486Z,957.16
2016-09-12T05:43:39.689Z,957.14
2016-09-12T05:44:32.726Z,957.14
2016-09-12T05:45:34.736Z,957.17
2016-09-12T05:46:34.572Z,957.14
2016-09-12T05:47:39.202Z,957.14
2016-09-12T05:48:43.872Z,957.18
2016-09-12T05:49:32.917Z,957.18
2016-09-12T05:50:39.030Z,957.20
2016-09-12T05:51:37.878Z,957.22
2016-09-12T05:52:44.484Z,957.17
2016-09-12T05:53:48.710Z,957.19
2016-09-12T05:54:39.339Z,957.16
2016-09-12T05:55:38.790Z,957.16
2016-09-12T05:56:39.436Z,957.13
2016-09-12T05:57:31.324Z,957.12
2016-09-12T05:58:39.337Z,957.15
2016-09-12T05:59:38.154Z,957.14
2016-09-12T06:00:34.106Z,957.16
2016-09-12T06:01:42.861Z,957.17
2016-09-12T06:02:41.999Z,957.20
2016-09-12T06:03:47.217Z,957.17
2016-09-12T06:04:49.476Z,957.18
2016-09-12T06:05:45.805Z,957.21
2016-09-12T06:06:43.014Z,957.15
2016-09-12T06:07:38.908Z,957.19
2016-09-12T06:08:39.107Z,957.19
2016-09-12T06:09:29.883Z,957.23
2016-09-12T06:10:31.908Z,957.22
2016-09-12T06:11:33.247Z,957.22
2016-09-12T06:12:33.236Z,957.24
2016-09-12T06:13:44.993Z,957.27
2016-09-12T06:14:40.914Z,957.28
2016-09-12T06:15:39.504Z,957.32
2016-09-12T06:16:39.444Z,957.33
2016-09-12T06:17:34.313Z,957.32
2016-09-12T06:18:39.423Z,957.34
2016-09-12T06:19:34.377Z,957.36
2016-09-12T06:21:03.287Z,957.32
2016-09-12T06:23:07.533Z,957.36
2016-09-12T06:24:39.998Z,957.37
2016-09-12T06:24:40.115Z,957.36
2016-09-12T06:24:59.913Z,957.38
2016-09-12T06:25:49.282Z,957.36
2016-09-12T06:26:33.287Z,957.35
2016-09-12T06:27:39.125Z,957.37
2016-09-12T06:28:47.818Z,957.41
2016-09-12T06:29:45.640Z,957.37
2016-09-12T06:30:33.525Z,957.38
2016-09-12T06:31:32.626Z,957.43
2016-09-12T06:32:39.758Z,957.41
2016-09-12T06:33:33.183Z,957.31
2016-09-12T06:34:44.443Z,957.30
2016-09-12T06:35:37.915Z,957.26
2016-09-12T06:36:44.670Z,957.25
2016-09-12T06:37:39.024Z,957.27
2016-09-12T06:38:39.350Z,957.30
2016-09-12T06:39:39.527Z,957.27
2016-09-12T06:40:38.869Z,957.26
2016-09-12T06:58:52.306Z,957.33
2016-09-12T06:58:54.851Z,957.33
2016-09-12T07:03:26.790Z,957.39
2016-09-12T07:06:01.101Z,957.40
2016-09-12T07:31:00.171Z,957.45
2016-09-12T12:35:37.333Z,957.06
2016-09-12T12:36:17.815Z,957.06
2016-09-12T12:36:17.822Z,957.03
2016-09-12T12:38:06.970Z,957.04
